Time;durP1;ratioP1;P1;durP2;ratioP2;P2;SDS_P1;SDS_P2;PMS_P1;PMS_P2;Temp;Humidity;BMP_temperature;BMP_pressure;BME280_temperature;BME280_humidity;BME280_pressure;Samples;Min_cycle;Max_cycle;Signal;HPM_P1;HPM_P2
2021/09/28 00:00:00;;;;;;;14.68;6.63;;;;;;;;;;5041798;28;20037;-54
2021/09/28 00:02:26;;;;;;;10.57;5.55;;;;;;;;;;5043048;28;20028;-54
2021/09/28 00:04:52;;;;;;;10.45;5.97;;;;;;;;;;5040142;28;20055;-54
2021/09/28 00:07:18;;;;;;;10.63;6.38;;;;;;;;;;5043259;28;20033;-54
2021/09/28 00:09:44;;;;;;;12.98;6.20;;;;;;;;;;5041952;28;20021;-54
2021/09/28 00:12:10;;;;;;;10.05;6.22;;;;;;;;;;5042422;28;20123;-54
2021/09/28 00:14:37;;;;;;;12.05;5.85;;;;;;;;;;5042830;28;20443;-54
2021/09/28 00:17:03;;;;;;;13.77;6.88;;;;;;;;;;5040779;28;20154;-53
2021/09/28 00:19:29;;;;;;;14.20;6.18;;;;;;;;;;5040888;28;20025;-54
2021/09/28 00:21:55;;;;;;;12.23;6.03;;;;;;;;;;5051219;28;20082;-54
2021/09/28 00:24:21;;;;;;;12.68;6.38;;;;;;;;;;5050000;28;20398;-54
2021/09/28 00:26:47;;;;;;;12.82;5.72;;;;;;;;;;5042738;28;20072;-54
2021/09/28 00:29:13;;;;;;;11.02;5.75;;;;;;;;;;5032623;28;20040;-54
2021/09/28 00:31:39;;;;;;;9.77;5.60;;;;;;;;;;5033136;28;20037;-54
2021/09/28 00:34:05;;;;;;;9.48;5.30;;;;;;;;;;5031585;28;20386;-54
2021/09/28 00:36:30;;;;;;;11.23;6.20;;;;;;;;;;5032634;28;20071;-55
2021/09/28 00:38:57;;;;;;;11.10;5.70;;;;;;;;;;5032691;28;20522;-54
2021/09/28 00:41:23;;;;;;;13.32;5.72;;;;;;;;;;5032663;28;20347;-54
2021/09/28 00:43:54;;;;;;;12.63;5.80;;;;;;;;;;5031839;28;20025;-54
2021/09/28 00:46:20;;;;;;;7.25;4.57;;;;;;;;;;5032632;28;20428;-54
2021/09/28 00:48:46;;;;;;;9.63;5.65;;;;;;;;;;5032858;28;20090;-54
2021/09/28 00:51:13;;;;;;;13.85;5.57;;;;;;;;;;5044229;28;20039;-54
2021/09/28 00:53:40;;;;;;;12.30;6.15;;;;;;;;;;5052159;28;20072;-54
2021/09/28 00:56:07;;;;;;;10.52;5.90;;;;;;;;;;5052909;28;20048;-54
2021/09/28 00:58:34;;;;;;;10.27;5.35;;;;;;;;;;5052637;28;20029;-54
2021/09/28 01:01:02;;;;;;;8.27;4.80;;;;;;;;;;5052377;28;20033;-54
2021/09/28 01:03:28;;;;;;;13.27;5.30;;;;;;;;;;5046625;28;20025;-54
2021/09/28 01:05:55;;;;;;;9.38;5.40;;;;;;;;;;5032073;28;20033;-54
2021/09/28 01:08:20;;;;;;;11.98;5.45;;;;;;;;;;5032523;28;20021;-54
2021/09/28 01:10:46;;;;;;;11.25;4.78;;;;;;;;;;5032400;28;20025;-54
2021/09/28 01:13:12;;;;;;;9.63;4.35;;;;;;;;;;5032390;28;20108;-54
2021/09/28 01:15:38;;;;;;;7.95;4.50;;;;;;;;;;5031549;28;20387;-54
2021/09/28 01:18:04;;;;;;;4.60;3.17;;;;;;;;;;5032925;28;20435;-54
2021/09/28 01:20:30;;;;;;;6.80;3.72;;;;;;;;;;5031883;28;20029;-54
2021/09/28 01:22:56;;;;;;;6.43;3.53;;;;;;;;;;5032715;28;20032;-54
2021/09/28 01:25:22;;;;;;;7.07;3.30;;;;;;;;;;5043529;28;20381;-54
2021/09/28 01:27:49;;;;;;;6.90;3.03;;;;;;;;;;5036621;28;20513;-55
2021/09/28 01:30:15;;;;;;;5.45;3.28;;;;;;;;;;5031246;28;20018;-54
2021/09/28 01:32:41;;;;;;;4.20;2.92;;;;;;;;;;5035813;28;20025;-55
2021/09/28 01:35:07;;;;;;;4.40;3.10;;;;;;;;;;5047341;28;20025;-54
2021/09/28 01:37:33;;;;;;;4.03;2.92;;;;;;;;;;5053580;28;20032;-54
2021/09/28 01:39:59;;;;;;;21.52;3.70;;;;;;;;;;5046018;28;20030;-54
2021/09/28 01:42:25;;;;;;;4.38;2.20;;;;;;;;;;5045686;28;20032;-54
2021/09/28 01:44:51;;;;;;;4.13;2.13;;;;;;;;;;5054466;28;20035;-54
2021/09/28 01:47:17;;;;;;;2.20;1.83;;;;;;;;;;5055569;28;20116;-54
2021/09/28 01:49:43;;;;;;;4.60;2.17;;;;;;;;;;5055887;28;20490;-55
2021/09/28 01:52:09;;;;;;;1.98;1.30;;;;;;;;;;5055950;28;20406;-54
2021/09/28 01:54:35;;;;;;;1.45;1.35;;;;;;;;;;5055182;28;20026;-55
2021/09/28 01:57:03;;;;;;;1.70;1.20;;;;;;;;;;5055688;28;20100;-55
2021/09/28 01:59:29;;;;;;;3.45;1.50;;;;;;;;;;5055745;28;20083;-54
2021/09/28 02:01:55;;;;;;;0.52;0.52;;;;;;;;;;5055325;28;20367;-54
2021/09/28 02:04:21;;;;;;;0.45;0.45;;;;;;;;;;5041734;28;20049;-54
2021/09/28 02:06:48;;;;;;;0.52;0.52;;;;;;;;;;5035299;28;20037;-54
2021/09/28 02:09:15;;;;;;;0.82;0.70;;;;;;;;;;5035347;28;20029;-54
2021/09/28 02:11:41;;;;;;;0.80;0.80;;;;;;;;;;5035417;28;20033;-54
2021/09/28 02:14:08;;;;;;;0.47;0.47;;;;;;;;;;5034352;28;20028;-54
2021/09/28 02:16:34;;;;;;;0.77;0.65;;;;;;;;;;5035272;28;20047;-54
2021/09/28 02:19:00;;;;;;;0.50;0.50;;;;;;;;;;5035363;28;20064;-54
2021/09/28 02:21:26;;;;;;;0.50;0.50;;;;;;;;;;5035362;28;20515;-54
2021/09/28 02:23:52;;;;;;;0.50;0.50;;;;;;;;;;5034831;28;20021;-54
2021/09/28 02:26:18;;;;;;;0.63;0.50;;;;;;;;;;5038321;28;20451;-55
2021/09/28 02:28:44;;;;;;;0.80;0.70;;;;;;;;;;5054609;28;20033;-54
2021/09/28 02:31:10;;;;;;;0.52;0.40;;;;;;;;;;5054471;28;20492;-54
2021/09/28 02:33:36;;;;;;;0.43;0.43;;;;;;;;;;5054166;28;20093;-54
2021/09/28 02:36:02;;;;;;;0.50;0.50;;;;;;;;;;5054937;28;20039;-54
2021/09/28 02:38:28;;;;;;;0.50;0.50;;;;;;;;;;5054813;28;20463;-54
2021/09/28 02:40:54;;;;;;;0.40;0.40;;;;;;;;;;5054332;28;20031;-54
2021/09/28 02:43:20;;;;;;;0.40;0.40;;;;;;;;;;5054554;28;20084;-54
2021/09/28 02:45:50;;;;;;;1.27;0.40;;;;;;;;;;5054132;28;20036;-54
2021/09/28 02:48:16;;;;;;;0.60;0.35;;;;;;;;;;5054832;28;20021;-54
2021/09/28 02:50:42;;;;;;;0.30;0.30;;;;;;;;;;5043367;28;20059;-54
2021/09/28 02:53:08;;;;;;;0.40;0.40;;;;;;;;;;5054243;28;20104;-54
2021/09/28 02:55:34;;;;;;;0.38;0.32;;;;;;;;;;5054318;28;20067;-54
2021/09/28 02:58:00;;;;;;;0.20;0.20;;;;;;;;;;5054268;28;20021;-54
2021/09/28 03:00:26;;;;;;;0.40;0.40;;;;;;;;;;5054188;28;20091;-54
2021/09/28 03:02:52;;;;;;;0.40;0.40;;;;;;;;;;5053435;28;20021;-54
2021/09/28 03:05:18;;;;;;;0.40;0.40;;;;;;;;;;5033458;28;20351;-54
2021/09/28 03:07:44;;;;;;;0.35;0.35;;;;;;;;;;5034224;28;20037;-54
2021/09/28 03:10:11;;;;;;;1.50;0.43;;;;;;;;;;5034266;28;20036;-54
2021/09/28 03:12:37;;;;;;;0.40;0.40;;;;;;;;;;5034361;28;20021;-54
2021/09/28 03:15:03;;;;;;;0.35;0.35;;;;;;;;;;5033864;28;20026;-54
2021/09/28 03:17:29;;;;;;;0.40;0.40;;;;;;;;;;5053467;28;20056;-54
2021/09/28 03:19:55;;;;;;;0.38;0.38;;;;;;;;;;5049011;28;20021;-54
2021/09/28 03:22:21;;;;;;;0.38;0.38;;;;;;;;;;5053137;28;20541;-54
2021/09/28 03:24:47;;;;;;;0.40;0.40;;;;;;;;;;5053465;28;20025;-54
2021/09/28 03:27:13;;;;;;;0.60;0.60;;;;;;;;;;5042804;28;20041;-54
2021/09/28 03:29:39;;;;;;;0.60;0.60;;;;;;;;;;5034291;28;20439;-54
2021/09/28 03:32:05;;;;;;;2.47;0.68;;;;;;;;;;5033705;28;20033;-54
2021/09/28 03:34:31;;;;;;;4.07;0.70;;;;;;;;;;5033332;28;20546;-54
2021/09/28 03:36:57;;;;;;;2.13;0.60;;;;;;;;;;5033690;28;20021;-54
2021/09/28 03:39:24;;;;;;;0.85;0.55;;;;;;;;;;5034010;28;20339;-54
2021/09/28 03:41:50;;;;;;;1.65;0.75;;;;;;;;;;5031319;28;20029;-54
2021/09/28 03:44:16;;;;;;;0.88;0.73;;;;;;;;;;5033151;28;20025;-54
2021/09/28 03:46:42;;;;;;;1.25;0.60;;;;;;;;;;5033264;28;20467;-54
2021/09/28 03:49:08;;;;;;;3.60;0.88;;;;;;;;;;5033640;28;20056;-54
2021/09/28 03:51:34;;;;;;;1.08;0.80;;;;;;;;;;5048373;28;20033;-54
2021/09/28 03:54:00;;;;;;;1.02;0.50;;;;;;;;;;5051432;28;20091;-54
2021/09/28 03:56:26;;;;;;;1.05;0.70;;;;;;;;;;5053242;28;20025;-54
2021/09/28 03:58:52;;;;;;;1.95;0.90;;;;;;;;;;5053478;28;20100;-54
2021/09/28 04:01:19;;;;;;;1.20;0.52;;;;;;;;;;5052557;28;20024;-54
2021/09/28 04:03:45;;;;;;;1.52;0.75;;;;;;;;;;5044185;28;20032;-54
2021/09/28 04:06:11;;;;;;;0.80;0.80;;;;;;;;;;5033162;28;20049;-54
2021/09/28 04:08:37;;;;;;;0.98;0.70;;;;;;;;;;5033009;28;20324;-50
2021/09/28 04:11:03;;;;;;;1.23;1.13;;;;;;;;;;5033462;28;20443;-52
2021/09/28 04:13:29;;;;;;;4.28;1.20;;;;;;;;;;5032752;28;20025;-52
2021/09/28 04:15:55;;;;;;;1.45;0.95;;;;;;;;;;5033120;28;20029;-52
2021/09/28 04:18:21;;;;;;;2.88;1.13;;;;;;;;;;5033108;28;20032;-52
2021/09/28 04:20:48;;;;;;;2.72;1.20;;;;;;;;;;5032360;28;20117;-52
2021/09/28 04:23:15;;;;;;;5.35;1.45;;;;;;;;;;5033313;28;20025;-52
2021/09/28 04:25:41;;;;;;;10.15;1.20;;;;;;;;;;5032155;28;20079;-52
2021/09/28 04:28:08;;;;;;;4.70;1.40;;;;;;;;;;5050947;28;20115;-52
2021/09/28 04:30:34;;;;;;;4.88;1.15;;;;;;;;;;5052849;28;20049;-52
2021/09/28 04:33:00;;;;;;;3.05;1.30;;;;;;;;;;5052367;28;20127;-52
2021/09/28 04:35:26;;;;;;;5.82;1.80;;;;;;;;;;5051809;28;20112;-52
2021/09/28 04:37:52;;;;;;;4.63;1.75;;;;;;;;;;5052691;28;20021;-52
2021/09/28 04:40:18;;;;;;;2.85;1.05;;;;;;;;;;5053017;28;20060;-52
2021/09/28 04:42:44;;;;;;;4.00;1.25;;;;;;;;;;5052368;28;20048;-52
2021/09/28 04:45:11;;;;;;;5.53;1.30;;;;;;;;;;5051812;28;20103;-52
2021/09/28 04:47:37;;;;;;;3.40;1.20;;;;;;;;;;5052631;28;20078;-52
2021/09/28 04:50:03;;;;;;;3.22;1.20;;;;;;;;;;5052738;28;20119;-52
2021/09/28 04:52:29;;;;;;;3.13;1.38;;;;;;;;;;5051359;28;20040;-52
2021/09/28 04:54:55;;;;;;;1.88;0.90;;;;;;;;;;5051709;28;20147;-52
2021/09/28 04:57:21;;;;;;;5.20;1.70;;;;;;;;;;5052151;28;20104;-51
2021/09/28 04:59:48;;;;;;;2.30;1.27;;;;;;;;;;5048697;28;20438;-51
2021/09/28 05:02:14;;;;;;;1.83;1.23;;;;;;;;;;5046183;28;20404;-52
2021/09/28 05:04:40;;;;;;;4.88;1.83;;;;;;;;;;5033891;28;20057;-52
2021/09/28 05:07:06;;;;;;;5.03;1.77;;;;;;;;;;5042888;28;20064;-52
2021/09/28 05:09:32;;;;;;;3.00;1.45;;;;;;;;;;5032819;28;20100;-52
2021/09/28 05:11:59;;;;;;;4.85;1.48;;;;;;;;;;5033028;28;20388;-52
2021/09/28 05:14:25;;;;;;;3.42;1.05;;;;;;;;;;5035757;28;20022;-52
2021/09/28 05:16:51;;;;;;;5.80;1.40;;;;;;;;;;5035903;28;20049;-52
2021/09/28 05:19:17;;;;;;;3.83;1.90;;;;;;;;;;5036364;28;20053;-52
2021/09/28 05:21:43;;;;;;;4.93;1.33;;;;;;;;;;5036667;28;20089;-52
2021/09/28 05:24:09;;;;;;;3.63;1.70;;;;;;;;;;5035602;28;20029;-52
2021/09/28 05:26:35;;;;;;;5.07;1.40;;;;;;;;;;5042378;28;20037;-52
2021/09/28 05:29:01;;;;;;;13.07;1.67;;;;;;;;;;5049797;28;20112;-52
2021/09/28 05:31:28;;;;;;;4.93;1.55;;;;;;;;;;5046441;28;20029;-52
2021/09/28 05:33:54;;;;;;;9.00;1.67;;;;;;;;;;5054668;28;20027;-51
2021/09/28 05:36:20;;;;;;;5.30;1.38;;;;;;;;;;5056045;28;20033;-52
2021/09/28 05:38:46;;;;;;;4.88;1.58;;;;;;;;;;5055361;28;20112;-52
2021/09/28 05:41:12;;;;;;;7.13;1.65;;;;;;;;;;5056166;28;20029;-52
2021/09/28 05:43:41;;;;;;;2.88;1.30;;;;;;;;;;5054874;28;20013;-52
2021/09/28 05:46:07;;;;;;;5.15;1.58;;;;;;;;;;5054575;28;20037;-52
2021/09/28 05:48:33;;;;;;;2.90;1.40;;;;;;;;;;5055735;28;20017;-52
2021/09/28 05:50:59;;;;;;;3.22;1.42;;;;;;;;;;5055256;28;20505;-52
2021/09/28 05:53:33;;;;;;;7.88;1.90;;;;;;;;;;5053167;28;20027;-52
2021/09/28 05:55:59;;;;;;;5.57;1.55;;;;;;;;;;5048851;28;20049;-51
2021/09/28 05:58:25;;;;;;;2.17;1.40;;;;;;;;;;5035241;28;20025;-52
2021/09/28 06:00:51;;;;;;;5.18;1.48;;;;;;;;;;5035617;28;20087;-52
2021/09/28 06:03:17;;;;;;;6.40;1.55;;;;;;;;;;5035420;28;20435;-52
2021/09/28 06:05:43;;;;;;;4.43;1.50;;;;;;;;;;5034534;28;20073;-52
2021/09/28 06:08:09;;;;;;;3.50;1.73;;;;;;;;;;5044490;28;20399;-51
2021/09/28 06:10:35;;;;;;;8.10;1.88;;;;;;;;;;5055537;28;20120;-52
2021/09/28 06:13:01;;;;;;;6.05;1.88;;;;;;;;;;5055506;28;20021;-52
2021/09/28 06:15:27;;;;;;;2.88;1.38;;;;;;;;;;5054167;28;20025;-52
2021/09/28 06:17:53;;;;;;;6.88;1.30;;;;;;;;;;5055515;28;20032;-52
2021/09/28 06:20:19;;;;;;;9.10;1.60;;;;;;;;;;5054386;28;20029;-52
2021/09/28 06:22:45;;;;;;;1.25;1.15;;;;;;;;;;5039796;28;20104;-52
2021/09/28 06:25:12;;;;;;;5.75;1.42;;;;;;;;;;5052226;28;20390;-52
2021/09/28 06:27:38;;;;;;;3.67;1.38;;;;;;;;;;5040451;28;20052;-52
2021/09/28 06:30:05;;;;;;;6.38;1.85;;;;;;;;;;5049005;28;20371;-52
2021/09/28 06:32:31;;;;;;;5.97;1.73;;;;;;;;;;5055067;28;20025;-52
2021/09/28 06:34:57;;;;;;;3.78;1.90;;;;;;;;;;5054166;28;20013;-52
2021/09/28 06:37:23;;;;;;;4.65;1.58;;;;;;;;;;5054423;28;20041;-52
2021/09/28 06:39:49;;;;;;;3.53;1.65;;;;;;;;;;5054955;28;20017;-52
2021/09/28 06:42:15;;;;;;;3.28;1.40;;;;;;;;;;5054684;28;20404;-52
2021/09/28 06:44:41;;;;;;;5.13;1.60;;;;;;;;;;5053723;28;20028;-52
2021/09/28 06:47:07;;;;;;;2.92;1.65;;;;;;;;;;5054279;28;20041;-52
2021/09/28 06:49:33;;;;;;;4.30;2.20;;;;;;;;;;5054690;28;20392;-52
2021/09/28 06:51:59;;;;;;;7.93;1.55;;;;;;;;;;5054304;28;20565;-52
2021/09/28 06:54:25;;;;;;;2.90;1.65;;;;;;;;;;5052601;28;20107;-52
2021/09/28 06:56:51;;;;;;;2.28;1.33;;;;;;;;;;5054056;28;20053;-52
2021/09/28 06:59:18;;;;;;;14.68;2.15;;;;;;;;;;5053745;28;20215;-52
2021/09/28 07:01:44;;;;;;;4.50;1.90;;;;;;;;;;5054367;28;20024;-52
2021/09/28 07:04:10;;;;;;;2.75;1.40;;;;;;;;;;5042097;28;20035;-52
2021/09/28 07:06:36;;;;;;;1.92;1.42;;;;;;;;;;5033255;28;20037;-52
2021/09/28 07:09:03;;;;;;;7.30;1.80;;;;;;;;;;5034216;28;20079;-52
2021/09/28 07:11:29;;;;;;;5.57;1.77;;;;;;;;;;5033920;28;20044;-52
2021/09/28 07:13:55;;;;;;;4.97;1.60;;;;;;;;;;5033573;28;20021;-52
2021/09/28 07:16:21;;;;;;;3.35;1.52;;;;;;;;;;5034271;28;20040;-51
2021/09/28 07:18:47;;;;;;;4.63;1.60;;;;;;;;;;5034214;28;20022;-52
2021/09/28 07:21:13;;;;;;;4.13;1.60;;;;;;;;;;5033249;28;20030;-52
2021/09/28 07:23:39;;;;;;;12.15;1.75;;;;;;;;;;5051313;28;20447;-52
2021/09/28 07:26:06;;;;;;;2.92;1.75;;;;;;;;;;5051329;28;20430;-52
2021/09/28 07:28:32;;;;;;;8.32;1.70;;;;;;;;;;5052209;28;20025;-52
2021/09/28 07:30:58;;;;;;;3.97;1.60;;;;;;;;;;5039192;28;20030;-52
2021/09/28 07:33:24;;;;;;;2.78;1.10;;;;;;;;;;5034251;28;20013;-52
2021/09/28 07:35:50;;;;;;;3.22;1.60;;;;;;;;;;5031201;28;20025;-52
2021/09/28 07:38:17;;;;;;;5.15;1.40;;;;;;;;;;5049589;28;20029;-52
2021/09/28 07:40:44;;;;;;;2.65;1.70;;;;;;;;;;5053259;28;20351;-52
2021/09/28 07:43:11;;;;;;;3.25;1.63;;;;;;;;;;5053203;28;20036;-52
2021/09/28 07:45:37;;;;;;;5.38;1.50;;;;;;;;;;5052775;28;20025;-52
2021/09/28 07:48:03;;;;;;;3.53;1.40;;;;;;;;;;5045140;28;20072;-52
2021/09/28 07:50:29;;;;;;;5.90;1.45;;;;;;;;;;5039188;28;20086;-52
2021/09/28 07:52:55;;;;;;;5.05;2.08;;;;;;;;;;5042231;28;20052;-52
2021/09/28 07:55:21;;;;;;;2.83;1.70;;;;;;;;;;5052354;28;20025;-52
2021/09/28 07:57:47;;;;;;;3.40;1.65;;;;;;;;;;5052690;28;20077;-52
2021/09/28 08:00:13;;;;;;;4.05;1.80;;;;;;;;;;5053128;28;20064;-52
2021/09/28 08:02:40;;;;;;;5.50;1.48;;;;;;;;;;5052971;28;20056;-52
2021/09/28 08:05:07;;;;;;;2.33;1.63;;;;;;;;;;5032734;28;20032;-52
2021/09/28 08:07:33;;;;;;;10.75;2.25;;;;;;;;;;5033378;28;20040;-52
2021/09/28 08:09:59;;;;;;;4.10;2.03;;;;;;;;;;5032798;28;20026;-52
2021/09/28 08:12:25;;;;;;;5.05;2.15;;;;;;;;;;5032926;28;20030;-52
2021/09/28 08:14:53;;;;;;;6.55;1.90;;;;;;;;;;5032421;28;20071;-52
2021/09/28 08:17:19;;;;;;;5.07;2.50;;;;;;;;;;5031282;28;20030;-52
2021/09/28 08:19:49;;;;;;;7.72;2.13;;;;;;;;;;5032030;28;20510;-52
2021/09/28 08:22:15;;;;;;;5.18;2.08;;;;;;;;;;5032946;28;20029;-52
2021/09/28 08:24:42;;;;;;;5.53;2.00;;;;;;;;;;5032354;28;20053;-52
2021/09/28 08:29:57;;;;;;;2.47;1.55;;;;;;;;;;5043032;28;20043;-52
2021/09/28 08:32:23;;;;;;;4.22;1.85;;;;;;;;;;5052642;28;20056;-52
2021/09/28 08:34:49;;;;;;;9.20;3.33;;;;;;;;;;5051661;28;20029;-52
2021/09/28 08:37:16;;;;;;;6.82;2.53;;;;;;;;;;5052777;28;20028;-52
2021/09/28 08:39:42;;;;;;;6.97;2.38;;;;;;;;;;5052216;28;20087;-52
2021/09/28 08:42:08;;;;;;;5.97;2.33;;;;;;;;;;5052026;28;20028;-52
2021/09/28 08:44:34;;;;;;;5.57;2.88;;;;;;;;;;5046846;28;20029;-52
2021/09/28 08:47:00;;;;;;;5.43;2.85;;;;;;;;;;5039850;28;20311;-52
2021/09/28 08:49:26;;;;;;;7.30;2.92;;;;;;;;;;5042146;28;20506;-53
2021/09/28 08:51:52;;;;;;;6.32;2.63;;;;;;;;;;5042285;28;20020;-52
2021/09/28 08:54:19;;;;;;;7.03;3.40;;;;;;;;;;5043871;28;20454;-52
2021/09/28 08:56:45;;;;;;;11.00;2.60;;;;;;;;;;5040330;28;20028;-52
2021/09/28 08:59:14;;;;;;;11.32;2.40;;;;;;;;;;5045940;28;20013;-52
2021/09/28 09:01:54;;;;;;;2.88;2.17;;;;;;;;;;5052526;28;20037;-52
2021/09/28 09:04:21;;;;;;;3.13;1.63;;;;;;;;;;5050610;28;20060;-52
2021/09/28 09:06:48;;;;;;;9.90;2.65;;;;;;;;;;5051934;28;20433;-52
2021/09/28 09:09:15;;;;;;;4.97;2.08;;;;;;;;;;5052595;28;20063;-52
2021/09/28 09:11:46;;;;;;;7.05;2.65;;;;;;;;;;5051311;28;20033;-52
2021/09/28 09:14:13;;;;;;;9.70;3.00;;;;;;;;;;5051704;28;20021;-52
2021/09/28 09:16:41;;;;;;;6.20;2.33;;;;;;;;;;5051211;28;20366;-52
2021/09/28 09:19:13;;;;;;;9.98;2.83;;;;;;;;;;5035980;28;20434;-52
2021/09/28 09:21:45;;;;;;;6.22;2.88;;;;;;;;;;5045071;28;20021;-52
2021/09/28 09:24:12;;;;;;;4.93;3.00;;;;;;;;;;5048677;28;20163;-52
2021/09/28 09:26:45;;;;;;;5.72;2.55;;;;;;;;;;5043065;28;20522;-52
2021/09/28 09:29:13;;;;;;;8.48;2.67;;;;;;;;;;5039833;28;20112;-52
2021/09/28 09:31:44;;;;;;;6.32;2.17;;;;;;;;;;5032287;28;20143;-52
2021/09/28 09:34:13;;;;;;;6.00;2.35;;;;;;;;;;5044723;28;20420;-52
2021/09/28 09:36:39;;;;;;;2.33;2.03;;;;;;;;;;5051638;28;20025;-52
2021/09/28 09:39:09;;;;;;;6.45;2.78;;;;;;;;;;5048798;28;20029;-52
2021/09/28 09:41:35;;;;;;;4.85;2.58;;;;;;;;;;5051626;28;20025;-52
2021/09/28 09:44:11;;;;;;;8.50;2.13;;;;;;;;;;5051298;28;20036;-52
2021/09/28 09:46:51;;;;;;;3.72;2.10;;;;;;;;;;5052246;28;20037;-52
2021/09/28 09:49:21;;;;;;;6.43;2.03;;;;;;;;;;5051475;28;20021;-52
2021/09/28 09:51:54;;;;;;;6.45;2.70;;;;;;;;;;5051297;28;20033;-52
2021/09/28 09:54:30;;;;;;;8.23;3.05;;;;;;;;;;5049744;28;20025;-52
2021/09/28 09:56:56;;;;;;;3.55;2.38;;;;;;;;;;5039579;28;20021;-52
2021/09/28 09:59:23;;;;;;;4.90;2.20;;;;;;;;;;5047454;28;20029;-52
2021/09/28 10:01:50;;;;;;;3.42;2.08;;;;;;;;;;5043085;28;20043;-52
2021/09/28 10:04:18;;;;;;;3.80;2.05;;;;;;;;;;5050142;28;20061;-52
2021/09/28 10:06:44;;;;;;;4.65;2.20;;;;;;;;;;5040234;28;20360;-52
2021/09/28 10:09:14;;;;;;;6.50;2.30;;;;;;;;;;5044145;28;20021;-52
2021/09/28 10:11:41;;;;;;;6.32;1.85;;;;;;;;;;5042232;28;20026;-52
2021/09/28 10:14:07;;;;;;;7.20;2.22;;;;;;;;;;5045594;28;20362;-52
2021/09/28 10:16:33;;;;;;;7.47;2.78;;;;;;;;;;5054639;28;20025;-52
2021/09/28 10:19:00;;;;;;;6.47;2.80;;;;;;;;;;5046524;28;20371;-52
2021/09/28 10:21:42;;;;;;;2.22;1.45;;;;;;;;;;5050967;28;20025;-52
2021/09/28 10:24:17;;;;;;;10.02;2.25;;;;;;;;;;5033132;28;20451;-52
2021/09/28 10:26:44;;;;;;;4.47;2.60;;;;;;;;;;5035234;28;20055;-52
2021/09/28 10:29:29;;;;;;;2.95;1.95;;;;;;;;;;5034155;28;20037;-52
2021/09/28 10:31:55;;;;;;;7.15;1.65;;;;;;;;;;5038847;28;20275;-52
2021/09/28 10:34:21;;;;;;;7.57;2.40;;;;;;;;;;5033875;28;20033;-53
2021/09/28 10:36:51;;;;;;;5.60;2.40;;;;;;;;;;5042075;28;20022;-52
2021/09/28 10:39:36;;;;;;;2.15;1.85;;;;;;;;;;5038028;28;20030;-52
2021/09/28 10:42:02;;;;;;;5.65;2.63;;;;;;;;;;5040831;28;20021;-52
2021/09/28 10:44:40;;;;;;;10.98;2.38;;;;;;;;;;5042821;28;20056;-52
2021/09/28 10:47:06;;;;;;;7.20;1.83;;;;;;;;;;5038407;28;20045;-52
2021/09/28 10:49:33;;;;;;;4.47;1.65;;;;;;;;;;5038424;28;20013;-52
2021/09/28 10:52:18;;;;;;;4.57;1.80;;;;;;;;;;5044437;28;20033;-52
2021/09/28 10:55:02;;;;;;;7.95;1.80;;;;;;;;;;5041595;28;20803;-51
2021/09/28 10:57:47;;;;;;;3.92;1.98;;;;;;;;;;5054333;28;20056;-52
2021/09/28 11:00:13;;;;;;;7.15;1.98;;;;;;;;;;5050900;28;20017;-52
2021/09/28 11:02:55;;;;;;;4.60;1.98;;;;;;;;;;5036782;28;20037;-52
2021/09/28 11:05:30;;;;;;;5.40;2.13;;;;;;;;;;5033528;28;20034;-52
2021/09/28 11:08:00;;;;;;;4.38;2.22;;;;;;;;;;5034211;28;20032;-52
2021/09/28 11:10:27;;;;;;;3.03;1.75;;;;;;;;;;5033218;28;20432;-52
2021/09/28 11:12:53;;;;;;;4.75;2.15;;;;;;;;;;5034364;28;20033;-52
2021/09/28 11:15:24;;;;;;;3.45;2.20;;;;;;;;;;5033621;28;20037;-52
2021/09/28 11:17:50;;;;;;;3.00;2.28;;;;;;;;;;5033718;28;20025;-51
2021/09/28 11:20:27;;;;;;;4.22;2.20;;;;;;;;;;5033930;28;20032;-51
2021/09/28 11:22:57;;;;;;;2.15;1.90;;;;;;;;;;5034289;28;20036;-52
2021/09/28 11:25:23;;;;;;;5.22;2.50;;;;;;;;;;5033152;28;20402;-52
2021/09/28 11:28:09;;;;;;;10.70;2.30;;;;;;;;;;5049094;28;20540;-52
2021/09/28 11:30:37;;;;;;;5.00;2.22;;;;;;;;;;5053756;28;20025;-52
2021/09/28 11:33:09;;;;;;;3.13;2.30;;;;;;;;;;5053660;28;20347;-53
2021/09/28 11:35:37;;;;;;;5.05;1.90;;;;;;;;;;5053007;28;20435;-52
2021/09/28 11:38:04;;;;;;;3.33;2.20;;;;;;;;;;5053452;28;20091;-52
2021/09/28 11:40:35;;;;;;;4.72;2.13;;;;;;;;;;5052878;28;20032;-52
2021/09/28 11:43:37;;;;;;;3.15;2.17;;;;;;;;;;5053984;28;20038;-52
2021/09/28 11:46:05;;;;;;;4.43;2.50;;;;;;;;;;5014493;28;20034;-52
2021/09/28 11:48:41;;;;;;;5.20;2.28;;;;;;;;;;5018643;28;20345;-52
2021/09/28 11:51:10;;;;;;;4.88;3.55;;;;;;;;;;5023778;28;20466;-52
2021/09/28 11:53:38;;;;;;;6.80;3.58;;;;;;;;;;5021730;28;20040;-52
2021/09/28 11:56:05;;;;;;;6.20;2.60;;;;;;;;;;5027971;28;20156;-52
2021/09/28 11:58:34;;;;;;;7.55;3.03;;;;;;;;;;5030491;28;20037;-52
2021/09/28 12:01:00;;;;;;;5.78;3.13;;;;;;;;;;5030883;28;20041;-52
2021/09/28 12:03:27;;;;;;;4.20;3.10;;;;;;;;;;5029781;28;20037;-51
2021/09/28 12:08:22;;;;;;;4.63;2.80;;;;;;;;;;5029172;28;20033;-52
2021/09/28 12:10:49;;;;;;;8.30;3.13;;;;;;;;;;5028664;28;20033;-52
2021/09/28 12:13:25;;;;;;;6.32;3.58;;;;;;;;;;5030417;28;20025;-52
2021/09/28 12:16:11;;;;;;;6.03;3.42;;;;;;;;;;5029785;28;20075;-52
2021/09/28 12:18:37;;;;;;;5.00;3.05;;;;;;;;;;5030543;28;20028;-52
2021/09/28 12:21:08;;;;;;;7.88;3.03;;;;;;;;;;5032610;28;20030;-52
2021/09/28 12:23:34;;;;;;;4.97;3.20;;;;;;;;;;5051431;28;20100;-52
2021/09/28 12:26:00;;;;;;;8.27;3.38;;;;;;;;;;5052027;28;20036;-52
2021/09/28 12:28:26;;;;;;;3.65;2.35;;;;;;;;;;5043703;28;20029;-52
2021/09/28 12:30:52;;;;;;;5.13;2.83;;;;;;;;;;5043003;28;20036;-53
2021/09/28 12:33:18;;;;;;;3.95;2.70;;;;;;;;;;5047372;28;20029;-52
2021/09/28 12:35:44;;;;;;;7.00;2.63;;;;;;;;;;5051817;28;20455;-52
2021/09/28 12:38:13;;;;;;;5.95;3.13;;;;;;;;;;5052122;28;20415;-53
2021/09/28 12:40:44;;;;;;;4.80;2.97;;;;;;;;;;5052603;28;20029;-52
2021/09/28 12:43:10;;;;;;;;;;;;;;;;;;5052995;28;20013;-52
2021/09/28 12:45:56;;;;;;;7.55;2.97;;;;;;;;;;5051244;28;19904;-52
2021/09/28 12:48:34;;;;;;;7.85;3.10;;;;;;;;;;5052657;28;20033;-52
2021/09/28 12:51:04;;;;;;;4.35;2.63;;;;;;;;;;5052759;28;20032;-52
2021/09/28 12:53:30;;;;;;;4.53;3.10;;;;;;;;;;5049362;28;20032;-52
2021/09/28 12:55:56;;;;;;;6.53;3.15;;;;;;;;;;5052302;28;20037;-52
2021/09/28 12:58:22;;;;;;;4.80;2.67;;;;;;;;;;5052697;28;20101;-52
2021/09/28 13:00:50;;;;;;;6.28;2.40;;;;;;;;;;5051854;28;20443;-52
2021/09/28 13:03:17;;;;;;;4.30;2.60;;;;;;;;;;5048477;28;20034;-52
2021/09/28 13:05:47;;;;;;;5.95;2.97;;;;;;;;;;5031598;28;20396;-52
2021/09/28 13:08:13;;;;;;;4.47;2.38;;;;;;;;;;5031676;28;20629;-53
2021/09/28 13:10:40;;;;;;;3.47;2.63;;;;;;;;;;5035058;28;20049;-52
2021/09/28 13:13:07;;;;;;;4.82;2.97;;;;;;;;;;5035377;28;20048;-52
2021/09/28 13:15:32;;;;;;;3.78;2.95;;;;;;;;;;5049191;28;20029;-52
2021/09/28 13:17:59;;;;;;;7.70;3.15;;;;;;;;;;5050030;28;20025;-52
2021/09/28 13:20:25;;;;;;;5.13;2.30;;;;;;;;;;5039796;28;20040;-52
2021/09/28 13:22:51;;;;;;;10.43;3.67;;;;;;;;;;5031857;28;20512;-52
2021/09/28 13:25:17;;;;;;;4.80;3.13;;;;;;;;;;5031955;28;20049;-52
2021/09/28 13:27:43;;;;;;;6.25;2.90;;;;;;;;;;5046817;28;20056;-53
2021/09/28 13:30:10;;;;;;;8.23;3.40;;;;;;;;;;5051874;28;20029;-52
2021/09/28 13:32:36;;;;;;;6.45;3.20;;;;;;;;;;5052423;28;20025;-52
2021/09/28 13:35:04;;;;;;;6.93;3.10;;;;;;;;;;5055007;28;20032;-52
2021/09/28 13:37:30;;;;;;;5.32;2.75;;;;;;;;;;5039775;28;20119;-52
2021/09/28 13:39:56;;;;;;;3.85;2.72;;;;;;;;;;5036181;28;20040;-52
2021/09/28 13:42:23;;;;;;;6.53;2.67;;;;;;;;;;5037558;28;20029;-51
2021/09/28 13:44:49;;;;;;;5.55;2.58;;;;;;;;;;5034125;28;20033;-55
2021/09/28 13:47:15;;;;;;;4.07;2.58;;;;;;;;;;5035936;28;20033;-54
2021/09/28 13:49:41;;;;;;;7.80;2.92;;;;;;;;;;5035475;28;20109;-55
2021/09/28 13:52:07;;;;;;;9.05;2.40;;;;;;;;;;5053689;28;20445;-55
2021/09/28 13:54:34;;;;;;;8.18;2.88;;;;;;;;;;5054512;28;20040;-54
2021/09/28 13:57:00;;;;;;;8.95;3.28;;;;;;;;;;5055577;28;20036;-55
2021/09/28 13:59:26;;;;;;;6.93;3.17;;;;;;;;;;5055112;28;20524;-55
2021/09/28 14:01:52;;;;;;;4.00;3.03;;;;;;;;;;5055141;28;20024;-55
2021/09/28 14:04:18;;;;;;;9.88;3.00;;;;;;;;;;5042407;28;20021;-54
2021/09/28 14:06:44;;;;;;;6.20;3.13;;;;;;;;;;5036023;28;20332;-55
2021/09/28 14:09:10;;;;;;;7.50;3.35;;;;;;;;;;5034724;28;20017;-55
2021/09/28 14:11:36;;;;;;;11.77;2.88;;;;;;;;;;5046190;28;20052;-55
2021/09/28 14:14:02;;;;;;;4.75;2.42;;;;;;;;;;5054879;28;20021;-54
2021/09/28 14:16:28;;;;;;;7.25;2.47;;;;;;;;;;5054977;28;20052;-54
2021/09/28 14:18:54;;;;;;;2.78;2.17;;;;;;;;;;5054694;28;20021;-55
2021/09/28 14:21:20;;;;;;;3.75;2.42;;;;;;;;;;5055545;28;20024;-54
2021/09/28 14:23:46;;;;;;;6.95;2.65;;;;;;;;;;5054281;28;20029;-54
2021/09/28 14:26:12;;;;;;;9.75;2.60;;;;;;;;;;5052377;28;20060;-54
2021/09/28 14:28:38;;;;;;;8.05;3.10;;;;;;;;;;5035447;28;20048;-54
2021/09/28 14:31:08;;;;;;;7.13;3.20;;;;;;;;;;5033304;28;20072;-55
2021/09/28 14:33:35;;;;;;;10.05;3.08;;;;;;;;;;5034216;28;20350;-55
2021/09/28 14:36:01;;;;;;;5.05;2.90;;;;;;;;;;5035083;28;20101;-54
2021/09/28 14:38:28;;;;;;;6.50;3.67;;;;;;;;;;5034338;28;20021;-54
2021/09/28 14:40:54;;;;;;;4.70;3.08;;;;;;;;;;5034896;28;20018;-54
2021/09/28 14:43:20;;;;;;;5.25;2.90;;;;;;;;;;5053387;28;20032;-54
2021/09/28 14:45:46;;;;;;;3.47;2.38;;;;;;;;;;5072437;28;20021;-54